Main page
METAR-TAF:

METAR-TAF

Airports :

Avignon – Provence Airport

Avignon, France

latitude: 43-54-26N, longitude: 004-54-07E, elevation: 38 m

Current weather observation

The report was made 29 minutes ago, at 22:30 UTC
Wind 5 kt from the North
Temperature 8°C
Humidity 71%
Pressure 1018 hPa
Visibility 10 km or more
Few clouds at a height of 6200 ft
Overcast at a height of 8800 ft
light rain

METAR: LFMV 272230Z AUTO 01005KT 9999 -RA FEW062 OVC088 08/03 Q1018

Time: 23:59 (22:59 UTC)

Forecast

The report was made 8 hours and 59 minutes ago, at 14:00 UTC
Forecast valid from 27 at 15 UTC to 28 at 15 UTC
Wind 10 kt from the North/Northwest
Visibility 10 km or more
no clouds below 1500 m and no cumulonimbus
Temporary
from 28 at 00 UTC to 28 at 12 UTC
Wind 3 kt from variable directions

TAF: LFMV 271400Z 2715/2815 34010KT CAVOK TEMPO 2800/2812 VRB03KT

Weather observations and forecasts of more than 4000 airports (METAR and TAF reports).

The available stations are represented by yellow and red dots on the map.

Hover mouse over dot to see the name of the station.

Then click to see weather observations and forecasts.

To change the map : click on the green buttons with a black cross to zoom in, on the green button with a dash to zoom out, or on the green arrows for adjacent maps.


METAR-TAF: